sensor_id;sensor_type;location;lat;lon;timestamp;P1;durP1;ratioP1;P2;durP2;ratioP2
21420;SDS011;10871;50.144;8.428;2022-12-26T00:01:20;9.70;;;6.78;;
21420;SDS011;10871;50.144;8.428;2022-12-26T00:03:47;11.35;;;7.03;;
21420;SDS011;10871;50.144;8.428;2022-12-26T00:06:15;8.63;;;6.97;;
21420;SDS011;10871;50.144;8.428;2022-12-26T00:08:42;10.93;;;7.22;;
21420;SDS011;10871;50.144;8.428;2022-12-26T00:11:08;10.98;;;7.85;;
21420;SDS011;10871;50.144;8.428;2022-12-26T00:13:35;8.90;;;7.05;;
21420;SDS011;10871;50.144;8.428;2022-12-26T00:16:09;12.60;;;7.57;;
21420;SDS011;10871;50.144;8.428;2022-12-26T00:18:36;10.00;;;7.65;;
21420;SDS011;10871;50.144;8.428;2022-12-26T00:21:03;10.60;;;7.88;;
21420;SDS011;10871;50.144;8.428;2022-12-26T00:23:30;11.00;;;7.13;;
21420;SDS011;10871;50.144;8.428;2022-12-26T00:26:00;11.40;;;7.40;;
21420;SDS011;10871;50.144;8.428;2022-12-26T00:28:27;12.23;;;7.35;;
21420;SDS011;10871;50.144;8.428;2022-12-26T00:30:53;10.77;;;7.32;;
21420;SDS011;10871;50.144;8.428;2022-12-26T00:33:19;14.55;;;7.32;;
21420;SDS011;10871;50.144;8.428;2022-12-26T00:35:46;10.88;;;7.07;;
21420;SDS011;10871;50.144;8.428;2022-12-26T00:38:12;10.98;;;7.07;;
21420;SDS011;10871;50.144;8.428;2022-12-26T00:40:39;10.38;;;7.80;;
21420;SDS011;10871;50.144;8.428;2022-12-26T00:43:08;16.27;;;8.15;;
21420;SDS011;10871;50.144;8.428;2022-12-26T00:45:35;8.73;;;7.25;;
21420;SDS011;10871;50.144;8.428;2022-12-26T00:48:01;12.73;;;7.28;;
21420;SDS011;10871;50.144;8.428;2022-12-26T00:50:27;11.57;;;7.03;;
21420;SDS011;10871;50.144;8.428;2022-12-26T00:53:00;15.07;;;7.80;;
21420;SDS011;10871;50.144;8.428;2022-12-26T00:55:26;11.68;;;8.00;;
21420;SDS011;10871;50.144;8.428;2022-12-26T00:57:53;12.27;;;8.10;;
21420;SDS011;10871;50.144;8.428;2022-12-26T01:00:19;11.82;;;7.13;;
21420;SDS011;10871;50.144;8.428;2022-12-26T01:02:45;13.23;;;9.05;;
21420;SDS011;10871;50.144;8.428;2022-12-26T01:05:12;11.43;;;8.50;;
21420;SDS011;10871;50.144;8.428;2022-12-26T01:07:39;13.13;;;8.30;;
21420;SDS011;10871;50.144;8.428;2022-12-26T01:10:26;12.63;;;8.77;;
21420;SDS011;10871;50.144;8.428;2022-12-26T01:12:53;13.07;;;9.48;;
21420;SDS011;10871;50.144;8.428;2022-12-26T01:15:19;11.90;;;8.23;;
21420;SDS011;10871;50.144;8.428;2022-12-26T01:17:46;11.43;;;8.10;;
21420;SDS011;10871;50.144;8.428;2022-12-26T01:20:12;11.32;;;7.63;;
21420;SDS011;10871;50.144;8.428;2022-12-26T01:22:38;15.48;;;9.90;;
21420;SDS011;10871;50.144;8.428;2022-12-26T01:25:05;12.55;;;10.18;;
21420;SDS011;10871;50.144;8.428;2022-12-26T01:27:32;20.63;;;16.25;;
21420;SDS011;10871;50.144;8.428;2022-12-26T01:29:58;13.65;;;12.25;;
21420;SDS011;10871;50.144;8.428;2022-12-26T01:32:25;17.27;;;13.52;;
21420;SDS011;10871;50.144;8.428;2022-12-26T01:34:51;15.35;;;11.27;;
21420;SDS011;10871;50.144;8.428;2022-12-26T01:37:20;17.55;;;13.43;;
21420;SDS011;10871;50.144;8.428;2022-12-26T01:39:48;13.48;;;8.40;;
21420;SDS011;10871;50.144;8.428;2022-12-26T01:42:16;10.45;;;7.43;;
21420;SDS011;10871;50.144;8.428;2022-12-26T01:44:59;9.25;;;7.10;;
21420;SDS011;10871;50.144;8.428;2022-12-26T01:47:30;14.30;;;7.20;;
21420;SDS011;10871;50.144;8.428;2022-12-26T01:50:00;12.63;;;7.90;;
21420;SDS011;10871;50.144;8.428;2022-12-26T01:52:28;11.10;;;7.15;;
21420;SDS011;10871;50.144;8.428;2022-12-26T01:54:57;11.20;;;7.45;;
21420;SDS011;10871;50.144;8.428;2022-12-26T01:57:28;13.45;;;7.18;;
21420;SDS011;10871;50.144;8.428;2022-12-26T01:59:56;13.27;;;6.88;;
21420;SDS011;10871;50.144;8.428;2022-12-26T02:02:24;13.00;;;7.25;;
21420;SDS011;10871;50.144;8.428;2022-12-26T02:04:51;9.75;;;6.93;;
21420;SDS011;10871;50.144;8.428;2022-12-26T02:07:39;8.85;;;7.03;;
21420;SDS011;10871;50.144;8.428;2022-12-26T02:10:08;10.80;;;6.65;;
21420;SDS011;10871;50.144;8.428;2022-12-26T02:12:37;12.27;;;7.28;;
21420;SDS011;10871;50.144;8.428;2022-12-26T02:15:07;11.77;;;6.82;;
21420;SDS011;10871;50.144;8.428;2022-12-26T02:17:35;10.85;;;7.00;;
21420;SDS011;10871;50.144;8.428;2022-12-26T02:25:20;10.77;;;6.68;;
21420;SDS011;10871;50.144;8.428;2022-12-26T02:30:35;9.25;;;5.88;;
21420;SDS011;10871;50.144;8.428;2022-12-26T02:33:14;10.18;;;6.22;;
21420;SDS011;10871;50.144;8.428;2022-12-26T02:35:47;8.88;;;6.35;;
21420;SDS011;10871;50.144;8.428;2022-12-26T02:38:33;9.65;;;6.10;;
21420;SDS011;10871;50.144;8.428;2022-12-26T02:41:15;10.00;;;6.50;;
21420;SDS011;10871;50.144;8.428;2022-12-26T02:46:31;14.40;;;6.45;;
21420;SDS011;10871;50.144;8.428;2022-12-26T02:49:20;11.85;;;6.25;;
21420;SDS011;10871;50.144;8.428;2022-12-26T02:54:47;10.15;;;6.43;;
21420;SDS011;10871;50.144;8.428;2022-12-26T02:57:39;11.38;;;6.63;;
21420;SDS011;10871;50.144;8.428;2022-12-26T03:00:25;10.30;;;6.65;;
21420;SDS011;10871;50.144;8.428;2022-12-26T03:03:14;11.15;;;6.50;;
21420;SDS011;10871;50.144;8.428;2022-12-26T03:06:02;8.05;;;6.13;;
21420;SDS011;10871;50.144;8.428;2022-12-26T03:08:53;13.15;;;7.32;;
21420;SDS011;10871;50.144;8.428;2022-12-26T03:11:39;10.23;;;6.95;;
21420;SDS011;10871;50.144;8.428;2022-12-26T03:14:25;12.07;;;7.18;;
21420;SDS011;10871;50.144;8.428;2022-12-26T03:16:55;11.90;;;7.05;;
21420;SDS011;10871;50.144;8.428;2022-12-26T03:19:41;11.60;;;7.50;;
21420;SDS011;10871;50.144;8.428;2022-12-26T03:22:44;11.55;;;7.72;;
21420;SDS011;10871;50.144;8.428;2022-12-26T03:25:13;10.00;;;7.18;;
21420;SDS011;10871;50.144;8.428;2022-12-26T03:27:59;15.57;;;7.28;;
21420;SDS011;10871;50.144;8.428;2022-12-26T03:30:25;12.18;;;7.70;;
21420;SDS011;10871;50.144;8.428;2022-12-26T03:33:11;11.95;;;7.57;;
21420;SDS011;10871;50.144;8.428;2022-12-26T03:35:56;13.07;;;7.53;;
21420;SDS011;10871;50.144;8.428;2022-12-26T03:38:25;13.15;;;7.43;;
21420;SDS011;10871;50.144;8.428;2022-12-26T03:41:00;11.18;;;7.40;;
21420;SDS011;10871;50.144;8.428;2022-12-26T03:44:08;11.63;;;6.95;;
21420;SDS011;10871;50.144;8.428;2022-12-26T03:47:04;10.63;;;6.97;;
21420;SDS011;10871;50.144;8.428;2022-12-26T03:49:54;12.35;;;8.05;;
21420;SDS011;10871;50.144;8.428;2022-12-26T03:55:36;11.52;;;7.13;;
21420;SDS011;10871;50.144;8.428;2022-12-26T03:58:25;12.35;;;7.35;;
21420;SDS011;10871;50.144;8.428;2022-12-26T04:01:13;12.23;;;7.57;;
21420;SDS011;10871;50.144;8.428;2022-12-26T04:04:00;12.75;;;7.55;;
21420;SDS011;10871;50.144;8.428;2022-12-26T04:06:53;10.32;;;7.72;;
21420;SDS011;10871;50.144;8.428;2022-12-26T04:09:47;10.60;;;7.73;;
21420;SDS011;10871;50.144;8.428;2022-12-26T04:12:32;14.18;;;7.95;;
21420;SDS011;10871;50.144;8.428;2022-12-26T04:16:03;13.40;;;7.90;;
21420;SDS011;10871;50.144;8.428;2022-12-26T04:18:52;12.98;;;7.95;;
21420;SDS011;10871;50.144;8.428;2022-12-26T04:21:35;11.27;;;7.72;;
21420;SDS011;10871;50.144;8.428;2022-12-26T04:24:24;14.82;;;8.13;;
21420;SDS011;10871;50.144;8.428;2022-12-26T04:27:10;12.98;;;7.63;;
21420;SDS011;10871;50.144;8.428;2022-12-26T04:29:56;10.75;;;7.18;;
21420;SDS011;10871;50.144;8.428;2022-12-26T04:32:48;12.45;;;7.00;;
21420;SDS011;10871;50.144;8.428;2022-12-26T04:38:19;10.63;;;7.35;;
21420;SDS011;10871;50.144;8.428;2022-12-26T04:41:06;12.25;;;7.18;;
21420;SDS011;10871;50.144;8.428;2022-12-26T04:43:52;9.85;;;6.82;;
21420;SDS011;10871;50.144;8.428;2022-12-26T04:46:31;11.50;;;7.20;;
21420;SDS011;10871;50.144;8.428;2022-12-26T04:48:58;10.77;;;7.25;;
21420;SDS011;10871;50.144;8.428;2022-12-26T04:51:43;12.20;;;7.00;;
21420;SDS011;10871;50.144;8.428;2022-12-26T04:54:10;8.43;;;6.00;;
21420;SDS011;10871;50.144;8.428;2022-12-26T04:56:36;11.18;;;6.72;;
21420;SDS011;10871;50.144;8.428;2022-12-26T04:59:02;9.30;;;6.43;;
21420;SDS011;10871;50.144;8.428;2022-12-26T05:01:29;10.73;;;6.72;;
21420;SDS011;10871;50.144;8.428;2022-12-26T05:04:15;10.20;;;6.88;;
21420;SDS011;10871;50.144;8.428;2022-12-26T05:07:00;9.45;;;6.65;;
21420;SDS011;10871;50.144;8.428;2022-12-26T05:09:47;10.02;;;6.35;;
21420;SDS011;10871;50.144;8.428;2022-12-26T05:12:14;11.60;;;7.90;;
21420;SDS011;10871;50.144;8.428;2022-12-26T05:14:40;12.75;;;6.57;;
21420;SDS011;10871;50.144;8.428;2022-12-26T05:17:06;10.63;;;6.65;;
21420;SDS011;10871;50.144;8.428;2022-12-26T05:19:52;10.35;;;6.53;;
21420;SDS011;10871;50.144;8.428;2022-12-26T05:22:38;10.32;;;5.72;;
21420;SDS011;10871;50.144;8.428;2022-12-26T05:25:28;11.93;;;6.05;;
21420;SDS011;10871;50.144;8.428;2022-12-26T05:28:14;10.65;;;6.43;;
21420;SDS011;10871;50.144;8.428;2022-12-26T05:30:59;10.27;;;5.93;;
21420;SDS011;10871;50.144;8.428;2022-12-26T05:33:27;9.43;;;5.97;;
21420;SDS011;10871;50.144;8.428;2022-12-26T05:36:12;10.15;;;5.88;;
21420;SDS011;10871;50.144;8.428;2022-12-26T05:38:39;10.70;;;6.05;;
21420;SDS011;10871;50.144;8.428;2022-12-26T05:41:06;9.38;;;6.85;;
21420;SDS011;10871;50.144;8.428;2022-12-26T05:43:32;10.48;;;6.78;;
21420;SDS011;10871;50.144;8.428;2022-12-26T05:45:58;12.52;;;6.20;;
21420;SDS011;10871;50.144;8.428;2022-12-26T05:48:25;10.20;;;5.97;;
21420;SDS011;10871;50.144;8.428;2022-12-26T05:50:51;9.95;;;6.88;;
21420;SDS011;10871;50.144;8.428;2022-12-26T05:53:18;10.10;;;6.28;;
21420;SDS011;10871;50.144;8.428;2022-12-26T05:55:44;8.77;;;5.68;;
21420;SDS011;10871;50.144;8.428;2022-12-26T05:58:10;8.50;;;6.28;;
21420;SDS011;10871;50.144;8.428;2022-12-26T06:00:37;10.30;;;6.35;;
21420;SDS011;10871;50.144;8.428;2022-12-26T06:03:03;14.38;;;6.63;;
21420;SDS011;10871;50.144;8.428;2022-12-26T06:05:30;9.98;;;6.10;;
21420;SDS011;10871;50.144;8.428;2022-12-26T06:07:56;11.85;;;5.63;;
21420;SDS011;10871;50.144;8.428;2022-12-26T06:10:22;9.63;;;5.88;;
21420;SDS011;10871;50.144;8.428;2022-12-26T06:12:51;9.32;;;6.20;;
21420;SDS011;10871;50.144;8.428;2022-12-26T06:15:18;8.32;;;5.45;;
21420;SDS011;10871;50.144;8.428;2022-12-26T06:17:44;8.05;;;5.75;;
21420;SDS011;10871;50.144;8.428;2022-12-26T06:20:11;9.88;;;6.00;;
21420;SDS011;10871;50.144;8.428;2022-12-26T06:22:37;9.00;;;6.10;;
21420;SDS011;10871;50.144;8.428;2022-12-26T06:25:03;12.85;;;6.25;;
21420;SDS011;10871;50.144;8.428;2022-12-26T06:27:30;12.77;;;5.85;;
21420;SDS011;10871;50.144;8.428;2022-12-26T06:29:56;11.13;;;6.30;;
21420;SDS011;10871;50.144;8.428;2022-12-26T06:32:23;11.25;;;6.53;;
21420;SDS011;10871;50.144;8.428;2022-12-26T06:34:49;9.60;;;5.72;;
21420;SDS011;10871;50.144;8.428;2022-12-26T06:37:15;11.15;;;6.38;;
21420;SDS011;10871;50.144;8.428;2022-12-26T06:39:42;9.70;;;5.95;;
21420;SDS011;10871;50.144;8.428;2022-12-26T06:42:08;10.57;;;5.65;;
21420;SDS011;10871;50.144;8.428;2022-12-26T06:44:34;8.60;;;5.68;;
21420;SDS011;10871;50.144;8.428;2022-12-26T06:47:01;12.23;;;6.18;;
21420;SDS011;10871;50.144;8.428;2022-12-26T06:49:28;12.52;;;6.30;;
21420;SDS011;10871;50.144;8.428;2022-12-26T06:51:58;10.13;;;5.63;;
21420;SDS011;10871;50.144;8.428;2022-12-26T06:54:24;8.07;;;5.50;;
21420;SDS011;10871;50.144;8.428;2022-12-26T06:56:51;10.27;;;5.60;;
21420;SDS011;10871;50.144;8.428;2022-12-26T06:59:17;11.13;;;5.55;;
21420;SDS011;10871;50.144;8.428;2022-12-26T07:01:43;10.20;;;5.47;;
21420;SDS011;10871;50.144;8.428;2022-12-26T07:04:11;12.07;;;5.43;;
21420;SDS011;10871;50.144;8.428;2022-12-26T07:06:37;14.73;;;6.38;;
21420;SDS011;10871;50.144;8.428;2022-12-26T07:09:05;11.88;;;6.03;;
21420;SDS011;10871;50.144;8.428;2022-12-26T07:11:33;11.18;;;6.00;;
21420;SDS011;10871;50.144;8.428;2022-12-26T07:13:59;9.98;;;6.30;;
21420;SDS011;10871;50.144;8.428;2022-12-26T07:16:26;11.48;;;6.10;;
21420;SDS011;10871;50.144;8.428;2022-12-26T07:18:53;8.38;;;6.50;;
21420;SDS011;10871;50.144;8.428;2022-12-26T07:21:20;10.30;;;6.00;;
21420;SDS011;10871;50.144;8.428;2022-12-26T07:23:46;12.48;;;6.53;;
21420;SDS011;10871;50.144;8.428;2022-12-26T07:26:13;12.57;;;6.47;;
21420;SDS011;10871;50.144;8.428;2022-12-26T07:28:39;9.57;;;6.28;;
21420;SDS011;10871;50.144;8.428;2022-12-26T07:31:05;9.45;;;6.63;;
21420;SDS011;10871;50.144;8.428;2022-12-26T07:33:32;12.82;;;6.47;;
21420;SDS011;10871;50.144;8.428;2022-12-26T07:36:00;8.70;;;6.25;;
21420;SDS011;10871;50.144;8.428;2022-12-26T07:38:26;15.30;;;7.18;;
21420;SDS011;10871;50.144;8.428;2022-12-26T07:40:54;10.35;;;6.63;;
21420;SDS011;10871;50.144;8.428;2022-12-26T07:43:20;12.13;;;7.03;;
21420;SDS011;10871;50.144;8.428;2022-12-26T07:45:48;16.90;;;7.20;;
21420;SDS011;10871;50.144;8.428;2022-12-26T07:48:15;10.63;;;6.75;;
21420;SDS011;10871;50.144;8.428;2022-12-26T07:50:42;13.80;;;7.55;;
21420;SDS011;10871;50.144;8.428;2022-12-26T07:53:12;15.23;;;7.20;;
21420;SDS011;10871;50.144;8.428;2022-12-26T07:55:39;13.93;;;7.00;;
21420;SDS011;10871;50.144;8.428;2022-12-26T07:58:05;14.70;;;7.22;;
21420;SDS011;10871;50.144;8.428;2022-12-26T08:00:32;14.43;;;7.13;;
21420;SDS011;10871;50.144;8.428;2022-12-26T08:02:58;11.63;;;6.60;;
21420;SDS011;10871;50.144;8.428;2022-12-26T08:05:32;10.38;;;6.90;;
21420;SDS011;10871;50.144;8.428;2022-12-26T08:07:59;11.50;;;7.55;;
21420;SDS011;10871;50.144;8.428;2022-12-26T08:10:25;11.70;;;7.57;;
21420;SDS011;10871;50.144;8.428;2022-12-26T08:12:51;12.95;;;7.75;;
21420;SDS011;10871;50.144;8.428;2022-12-26T08:15:18;12.80;;;7.63;;
21420;SDS011;10871;50.144;8.428;2022-12-26T08:17:44;12.15;;;7.30;;
21420;SDS011;10871;50.144;8.428;2022-12-26T08:20:10;13.30;;;8.02;;
21420;SDS011;10871;50.144;8.428;2022-12-26T08:22:37;15.73;;;8.10;;
21420;SDS011;10871;50.144;8.428;2022-12-26T08:25:03;13.35;;;7.72;;
21420;SDS011;10871;50.144;8.428;2022-12-26T08:27:30;14.75;;;8.70;;
21420;SDS011;10871;50.144;8.428;2022-12-26T08:29:56;17.92;;;7.75;;
21420;SDS011;10871;50.144;8.428;2022-12-26T08:32:22;16.23;;;8.60;;
21420;SDS011;10871;50.144;8.428;2022-12-26T08:34:49;18.45;;;7.65;;
21420;SDS011;10871;50.144;8.428;2022-12-26T08:37:15;16.00;;;7.85;;
21420;SDS011;10871;50.144;8.428;2022-12-26T08:39:41;15.45;;;8.80;;
21420;SDS011;10871;50.144;8.428;2022-12-26T08:42:08;15.60;;;9.30;;
21420;SDS011;10871;50.144;8.428;2022-12-26T08:44:34;15.95;;;9.68;;
21420;SDS011;10871;50.144;8.428;2022-12-26T08:47:00;18.38;;;10.65;;
21420;SDS011;10871;50.144;8.428;2022-12-26T08:49:27;15.00;;;11.20;;
21420;SDS011;10871;50.144;8.428;2022-12-26T08:51:53;19.00;;;10.90;;
21420;SDS011;10871;50.144;8.428;2022-12-26T08:54:19;16.00;;;10.70;;
21420;SDS011;10871;50.144;8.428;2022-12-26T08:56:46;17.17;;;10.57;;
21420;SDS011;10871;50.144;8.428;2022-12-26T08:59:12;15.68;;;10.88;;
21420;SDS011;10871;50.144;8.428;2022-12-26T09:01:39;15.77;;;10.70;;
21420;SDS011;10871;50.144;8.428;2022-12-26T09:04:06;14.63;;;10.40;;
21420;SDS011;10871;50.144;8.428;2022-12-26T09:06:33;16.75;;;9.63;;
21420;SDS011;10871;50.144;8.428;2022-12-26T09:09:00;17.05;;;9.65;;
21420;SDS011;10871;50.144;8.428;2022-12-26T09:11:26;11.98;;;9.55;;
21420;SDS011;10871;50.144;8.428;2022-12-26T09:13:54;15.32;;;9.68;;
21420;SDS011;10871;50.144;8.428;2022-12-26T09:16:22;21.25;;;10.30;;
21420;SDS011;10871;50.144;8.428;2022-12-26T09:18:52;15.52;;;9.43;;
21420;SDS011;10871;50.144;8.428;2022-12-26T09:21:19;16.77;;;9.45;;
21420;SDS011;10871;50.144;8.428;2022-12-26T09:23:45;14.88;;;9.48;;
21420;SDS011;10871;50.144;8.428;2022-12-26T09:26:12;16.33;;;10.77;;
21420;SDS011;10871;50.144;8.428;2022-12-26T09:28:39;14.07;;;10.05;;
21420;SDS011;10871;50.144;8.428;2022-12-26T09:31:09;15.38;;;9.30;;
21420;SDS011;10871;50.144;8.428;2022-12-26T09:33:36;12.95;;;8.48;;
21420;SDS011;10871;50.144;8.428;2022-12-26T09:36:04;13.52;;;7.47;;
21420;SDS011;10871;50.144;8.428;2022-12-26T09:38:39;12.57;;;7.68;;
21420;SDS011;10871;50.144;8.428;2022-12-26T09:41:15;13.48;;;7.55;;
21420;SDS011;10871;50.144;8.428;2022-12-26T09:43:54;10.93;;;5.88;;
21420;SDS011;10871;50.144;8.428;2022-12-26T09:46:31;9.32;;;5.57;;
21420;SDS011;10871;50.144;8.428;2022-12-26T09:51:35;11.15;;;5.70;;
21420;SDS011;10871;50.144;8.428;2022-12-26T09:54:03;9.40;;;5.70;;
21420;SDS011;10871;50.144;8.428;2022-12-26T09:56:32;8.68;;;5.78;;
21420;SDS011;10871;50.144;8.428;2022-12-26T09:59:19;11.00;;;5.63;;
21420;SDS011;10871;50.144;8.428;2022-12-26T10:01:48;8.05;;;5.80;;
21420;SDS011;10871;50.144;8.428;2022-12-26T10:04:25;9.98;;;5.93;;
21420;SDS011;10871;50.144;8.428;2022-12-26T10:17:10;10.40;;;4.93;;
21420;SDS011;10871;50.144;8.428;2022-12-26T10:19:46;12.40;;;5.05;;
21420;SDS011;10871;50.144;8.428;2022-12-26T10:22:29;7.15;;;4.25;;
21420;SDS011;10871;50.144;8.428;2022-12-26T10:24:59;6.80;;;4.35;;
21420;SDS011;10871;50.144;8.428;2022-12-26T10:27:38;6.57;;;4.07;;
21420;SDS011;10871;50.144;8.428;2022-12-26T10:30:06;8.85;;;4.78;;
21420;SDS011;10871;50.144;8.428;2022-12-26T10:32:41;6.47;;;4.50;;
21420;SDS011;10871;50.144;8.428;2022-12-26T10:35:14;7.97;;;3.92;;
21420;SDS011;10871;50.144;8.428;2022-12-26T10:37:44;6.03;;;4.00;;
21420;SDS011;10871;50.144;8.428;2022-12-26T10:40:26;9.75;;;4.40;;
21420;SDS011;10871;50.144;8.428;2022-12-26T10:42:59;6.85;;;3.97;;
21420;SDS011;10871;50.144;8.428;2022-12-26T10:45:32;9.88;;;4.22;;
21420;SDS011;10871;50.144;8.428;2022-12-26T10:48:02;7.30;;;4.45;;
21420;SDS011;10871;50.144;8.428;2022-12-26T10:50:30;7.03;;;4.05;;
21420;SDS011;10871;50.144;8.428;2022-12-26T10:52:57;10.48;;;4.00;;
21420;SDS011;10871;50.144;8.428;2022-12-26T10:55:31;6.85;;;3.72;;
21420;SDS011;10871;50.144;8.428;2022-12-26T10:58:02;7.40;;;3.55;;
21420;SDS011;10871;50.144;8.428;2022-12-26T11:00:30;6.45;;;4.00;;
21420;SDS011;10871;50.144;8.428;2022-12-26T11:03:00;9.30;;;3.70;;
21420;SDS011;10871;50.144;8.428;2022-12-26T11:05:27;3.88;;;2.80;;
21420;SDS011;10871;50.144;8.428;2022-12-26T11:08:15;5.57;;;3.10;;
21420;SDS011;10871;50.144;8.428;2022-12-26T11:10:49;5.28;;;3.05;;
21420;SDS011;10871;50.144;8.428;2022-12-26T11:13:26;5.32;;;2.60;;
21420;SDS011;10871;50.144;8.428;2022-12-26T11:15:52;3.92;;;2.17;;
21420;SDS011;10871;50.144;8.428;2022-12-26T11:18:19;5.18;;;2.38;;
21420;SDS011;10871;50.144;8.428;2022-12-26T11:20:47;4.93;;;2.40;;
21420;SDS011;10871;50.144;8.428;2022-12-26T11:25:46;2.88;;;2.05;;
21420;SDS011;10871;50.144;8.428;2022-12-26T11:30:54;3.38;;;2.20;;
21420;SDS011;10871;50.144;8.428;2022-12-26T11:33:25;3.53;;;2.20;;
21420;SDS011;10871;50.144;8.428;2022-12-26T11:38:26;5.82;;;2.20;;
21420;SDS011;10871;50.144;8.428;2022-12-26T11:41:11;3.95;;;1.90;;
21420;SDS011;10871;50.144;8.428;2022-12-26T11:43:57;1.90;;;1.60;;
21420;SDS011;10871;50.144;8.428;2022-12-26T11:47:09;2.97;;;1.77;;
21420;SDS011;10871;50.144;8.428;2022-12-26T11:49:17;2.25;;;2.05;;
21420;SDS011;10871;50.144;8.428;2022-12-26T11:51:45;2.20;;;1.65;;
21420;SDS011;10871;50.144;8.428;2022-12-26T11:56:41;3.65;;;1.85;;
21420;SDS011;10871;50.144;8.428;2022-12-26T11:59:18;3.55;;;2.00;;
21420;SDS011;10871;50.144;8.428;2022-12-26T12:01:45;1.88;;;1.60;;
21420;SDS011;10871;50.144;8.428;2022-12-26T12:04:12;3.78;;;1.40;;
21420;SDS011;10871;50.144;8.428;2022-12-26T12:09:54;3.40;;;1.67;;
21420;SDS011;10871;50.144;8.428;2022-12-26T12:15:30;3.17;;;2.13;;
21420;SDS011;10871;50.144;8.428;2022-12-26T12:18:05;4.03;;;1.80;;
21420;SDS011;10871;50.144;8.428;2022-12-26T12:26:08;2.63;;;1.17;;
21420;SDS011;10871;50.144;8.428;2022-12-26T12:41:09;2.40;;;1.30;;
21420;SDS011;10871;50.144;8.428;2022-12-26T12:46:13;4.53;;;1.40;;
21420;SDS011;10871;50.144;8.428;2022-12-26T12:56:37;3.88;;;1.98;;
21420;SDS011;10871;50.144;8.428;2022-12-26T12:59:18;4.20;;;1.67;;
21420;SDS011;10871;50.144;8.428;2022-12-26T13:01:51;3.08;;;2.00;;
21420;SDS011;10871;50.144;8.428;2022-12-26T13:04:26;6.75;;;1.98;;
21420;SDS011;10871;50.144;8.428;2022-12-26T13:06:55;4.22;;;2.17;;
21420;SDS011;10871;50.144;8.428;2022-12-26T13:14:36;5.55;;;2.53;;
21420;SDS011;10871;50.144;8.428;2022-12-26T13:17:10;4.30;;;2.47;;
21420;SDS011;10871;50.144;8.428;2022-12-26T13:19:43;5.25;;;3.22;;
21420;SDS011;10871;50.144;8.428;2022-12-26T13:22:29;4.22;;;3.25;;
21420;SDS011;10871;50.144;8.428;2022-12-26T13:25:21;6.15;;;3.47;;
21420;SDS011;10871;50.144;8.428;2022-12-26T13:27:49;7.05;;;3.20;;
21420;SDS011;10871;50.144;8.428;2022-12-26T13:30:18;6.78;;;3.25;;
21420;SDS011;10871;50.144;8.428;2022-12-26T13:32:47;6.68;;;4.03;;
21420;SDS011;10871;50.144;8.428;2022-12-26T13:38:00;5.90;;;3.30;;
21420;SDS011;10871;50.144;8.428;2022-12-26T13:40:28;3.97;;;2.55;;
21420;SDS011;10871;50.144;8.428;2022-12-26T13:43:08;2.28;;;1.42;;
21420;SDS011;10871;50.144;8.428;2022-12-26T13:45:59;1.67;;;1.10;;
21420;SDS011;10871;50.144;8.428;2022-12-26T13:50:59;2.92;;;1.38;;
21420;SDS011;10871;50.144;8.428;2022-12-26T13:53:31;1.77;;;1.40;;
21420;SDS011;10871;50.144;8.428;2022-12-26T13:56:00;2.65;;;1.48;;
21420;SDS011;10871;50.144;8.428;2022-12-26T14:06:21;1.48;;;1.08;;
21420;SDS011;10871;50.144;8.428;2022-12-26T14:14:23;3.95;;;1.90;;
21420;SDS011;10871;50.144;8.428;2022-12-26T14:17:14;4.63;;;1.40;;
21420;SDS011;10871;50.144;8.428;2022-12-26T14:22:41;1.30;;;0.90;;
21420;SDS011;10871;50.144;8.428;2022-12-26T14:27:58;1.48;;;0.98;;
21420;SDS011;10871;50.144;8.428;2022-12-26T14:30:30;2.30;;;1.00;;
21420;SDS011;10871;50.144;8.428;2022-12-26T14:33:22;8.05;;;1.80;;
21420;SDS011;10871;50.144;8.428;2022-12-26T14:36:01;2.58;;;1.10;;
21420;SDS011;10871;50.144;8.428;2022-12-26T14:38:49;2.97;;;1.13;;
21420;SDS011;10871;50.144;8.428;2022-12-26T14:41:18;3.15;;;1.20;;
21420;SDS011;10871;50.144;8.428;2022-12-26T14:44:08;2.13;;;1.20;;
21420;SDS011;10871;50.144;8.428;2022-12-26T14:49:33;4.95;;;1.40;;
21420;SDS011;10871;50.144;8.428;2022-12-26T14:54:47;2.03;;;1.50;;
21420;SDS011;10871;50.144;8.428;2022-12-26T15:00:14;2.90;;;1.45;;
21420;SDS011;10871;50.144;8.428;2022-12-26T15:02:43;3.67;;;1.67;;
21420;SDS011;10871;50.144;8.428;2022-12-26T15:05:13;3.55;;;1.90;;
21420;SDS011;10871;50.144;8.428;2022-12-26T15:21:16;4.22;;;1.42;;
21420;SDS011;10871;50.144;8.428;2022-12-26T15:24:02;2.63;;;1.30;;
21420;SDS011;10871;50.144;8.428;2022-12-26T15:31:54;2.47;;;1.25;;
21420;SDS011;10871;50.144;8.428;2022-12-26T15:36:59;2.97;;;1.40;;
21420;SDS011;10871;50.144;8.428;2022-12-26T15:45:23;2.60;;;1.20;;
21420;SDS011;10871;50.144;8.428;2022-12-26T15:50:26;3.90;;;1.40;;
21420;SDS011;10871;50.144;8.428;2022-12-26T16:00:55;15.10;;;6.57;;
21420;SDS011;10871;50.144;8.428;2022-12-26T16:03:31;8.20;;;4.18;;
21420;SDS011;10871;50.144;8.428;2022-12-26T16:13:49;2.78;;;1.50;;
21420;SDS011;10871;50.144;8.428;2022-12-26T16:16:30;3.08;;;1.42;;
21420;SDS011;10871;50.144;8.428;2022-12-26T16:19:12;5.43;;;1.75;;
21420;SDS011;10871;50.144;8.428;2022-12-26T16:21:39;3.38;;;1.58;;
21420;SDS011;10871;50.144;8.428;2022-12-26T16:24:25;1.98;;;1.30;;
21420;SDS011;10871;50.144;8.428;2022-12-26T16:26:53;4.38;;;1.60;;
21420;SDS011;10871;50.144;8.428;2022-12-26T16:29:21;2.78;;;1.35;;
21420;SDS011;10871;50.144;8.428;2022-12-26T16:31:48;3.25;;;1.40;;
21420;SDS011;10871;50.144;8.428;2022-12-26T16:34:16;4.40;;;1.80;;
21420;SDS011;10871;50.144;8.428;2022-12-26T16:36:44;6.30;;;1.58;;
21420;SDS011;10871;50.144;8.428;2022-12-26T16:39:18;3.33;;;1.20;;
21420;SDS011;10871;50.144;8.428;2022-12-26T16:42:02;3.40;;;0.98;;
21420;SDS011;10871;50.144;8.428;2022-12-26T16:47:00;5.25;;;1.33;;
21420;SDS011;10871;50.144;8.428;2022-12-26T16:49:29;2.72;;;1.15;;
21420;SDS011;10871;50.144;8.428;2022-12-26T16:51:57;2.10;;;1.00;;
21420;SDS011;10871;50.144;8.428;2022-12-26T16:54:26;1.83;;;0.90;;
21420;SDS011;10871;50.144;8.428;2022-12-26T16:57:01;1.00;;;0.90;;
21420;SDS011;10871;50.144;8.428;2022-12-26T17:02:24;2.45;;;0.70;;
21420;SDS011;10871;50.144;8.428;2022-12-26T17:04:54;1.63;;;0.90;;
21420;SDS011;10871;50.144;8.428;2022-12-26T17:07:24;1.25;;;0.50;;
21420;SDS011;10871;50.144;8.428;2022-12-26T17:09:53;1.08;;;0.60;;
21420;SDS011;10871;50.144;8.428;2022-12-26T17:12:25;1.17;;;0.82;;
21420;SDS011;10871;50.144;8.428;2022-12-26T17:14:54;1.13;;;0.70;;
21420;SDS011;10871;50.144;8.428;2022-12-26T17:19:51;1.30;;;0.90;;
21420;SDS011;10871;50.144;8.428;2022-12-26T17:27:39;3.92;;;1.13;;
21420;SDS011;10871;50.144;8.428;2022-12-26T17:30:20;2.45;;;1.00;;
21420;SDS011;10871;50.144;8.428;2022-12-26T17:32:48;2.05;;;0.88;;
21420;SDS011;10871;50.144;8.428;2022-12-26T17:35:19;1.13;;;0.82;;
21420;SDS011;10871;50.144;8.428;2022-12-26T17:37:50;3.63;;;1.05;;
21420;SDS011;10871;50.144;8.428;2022-12-26T17:40:36;1.80;;;1.20;;
21420;SDS011;10871;50.144;8.428;2022-12-26T17:43:18;2.35;;;1.20;;
21420;SDS011;10871;50.144;8.428;2022-12-26T17:45:45;2.08;;;1.38;;
21420;SDS011;10871;50.144;8.428;2022-12-26T17:48:13;1.40;;;1.10;;
21420;SDS011;10871;50.144;8.428;2022-12-26T17:50:42;1.80;;;1.20;;
21420;SDS011;10871;50.144;8.428;2022-12-26T17:53:22;1.35;;;1.20;;
21420;SDS011;10871;50.144;8.428;2022-12-26T17:55:49;2.00;;;1.38;;
21420;SDS011;10871;50.144;8.428;2022-12-26T17:58:17;3.42;;;1.40;;
21420;SDS011;10871;50.144;8.428;2022-12-26T18:00:44;1.65;;;1.08;;
21420;SDS011;10871;50.144;8.428;2022-12-26T18:03:12;2.83;;;1.30;;
21420;SDS011;10871;50.144;8.428;2022-12-26T18:05:39;1.88;;;1.15;;